CheckWX is a tool to help pilots better visualize weather data.  It is not intended as a substitute for an official pre-flight weather briefing.

00:29:47 UTC

KEMT METAR
San Gabriel Valley Airport
El Monte, California, USA
Current

45 mins ago

KEMT 162345Z 20008KT 10SM CLR 28/08 A2992
Observed
Nov-16 @ 23:45 UTC
Wind
  • 200° at 8 KTS
Visibility
10 SM
Flight Rules
VFR
Cloud Levels
  • Clear skies
Temperature
28°C / 82°F
Dewpoint
C / 46°F
Humidity
28%
Altimeter
29.92" Hg
Pressure
1013.22 hPa
Previous

2 hours ago

KEMT 162248Z 22005KT 10SM CLR 29/07 A2993
Observed
Nov-16 @ 22:48 UTC
Wind
  • 220° at 5 KTS
Visibility
10 SM
Flight Rules
VFR
Cloud Levels
  • Clear skies
Temperature
29°C / 84°F
Dewpoint
C / 45°F
Humidity
25%
Altimeter
29.93" Hg
Pressure
1013.52 hPa
Previous

3 hours ago

KEMT 162150Z 21007KT 10SM CLR 29/03 A2992
Observed
Nov-16 @ 21:50 UTC
Wind
  • 210° at 7 KTS
Visibility
10 SM
Flight Rules
VFR
Cloud Levels
  • Clear skies
Temperature
29°C / 84°F
Dewpoint
C / 37°F
Humidity
19%
Altimeter
29.92" Hg
Pressure
1013.22 hPa